ADDS TAF Board (Experimental) INFO

IDs: Format: Expanded Condensed

Updated at: 0022 UTC 01 Nov 2014

KDFW - Dallas-Ft Worth Intl, TX, US

Issued at 2320 UTC 31 Oct 2014
Time2353Z01/01Z01/02Z01/03Z01/04Z01/05Z01/06Z01/07Z01/08Z01/09Z01/10Z01/11Z01/12Z01/13Z
TypeOBSPRVLPRVLPRVLPRVLPRVLPRVLPRVLPRVLPRVLPRVLPRVLPRVLPRVL
VIS10>6>6>6>6>6>6>6>6>6>6>6>6>6
CIG----------------------------
CoverFEWFEWFEWFEWFEWFEWFEWFEWFEWFEWFEWFEWFEWFEW
FltCat--VFRVFRVFRVFRVFRVFRVFRVFRVFRVFRVFRVFRVFR
WX----------------------------
WDir2030303030303030303030303030
WSpd910101010101010101010101010
WGst----------------------------
R13/31
XWnd810101010101010101010101010
HWnd-4-3-3-3-3-3-3-3-3-3-3-3-3-3
R17/35
XWnd35555555555555
HWnd-8-9-9-9-9-9-9-9-9-9-9-9-9-9
R18/36
XWnd35555555555555
HWnd-8-9-9-9-9-9-9-9-9-9-9-9-9-9
Raw TAF
KDFW 312320Z 0100/0206 03010KT P6SM FEW250
  FM011500 13008KT P6SM SCT250


Raw METAR
KDFW 312353Z 02009KT 10SM FEW250 14/03 A3031 RMK AO2 SLP260 T01440033 10194 20144 53005

TAF Board Legend

Hazard VFR MVFR IFR LIFR
Visibility (sm) >5 3≤X≤5 1≤X<3 <1
Ceiling (100 ft) >30 10≤X≤30 5≤X<10 <5
Wind Speed (kt) <10 10≤X<20 20≤X<30 ≥30
Wind Gust (kt) <15 15≤X<25 25≤X<35 ≥35
Weather No Wx Reported VCTS,-TS,-FZRA TS,FZRA +TS,+FZRA


Page loaded:  00:22 UTC  |   05:22 PM Pacific  |   06:22 PM Mountain  |   07:22 PM Central  |   08:22 PM Eastern

 

ADVISORIES

FORECASTS

FORECASTS

OBSERVATIONS

USER TOOLS

ABOUT US